Prestations.

Choisissez la prestation de votre choix.

Initiation.

Évènement client.

Formations.

METAR :

LFQA 190330Z AUTO 16007KT 9999 ///CB 12/10 Q1006


vue en direct sur l'aérodrome
mentions légales politique de confidentialité
Cochet Concept
cx